Tabuk, Saudi Arabia
Current Conditions -  °F | °C
As of 5:00 PM on Thursday 23 Oct 2014 (Local Time) from OETB Reporting Station
Clear Clear  
Wind Chill: 88°   Ceiling: Unl
Heat Index: 88°   Visibility: 6mi
Dew Point: 39°   Wind: 13mph
Humidity: 18%   Direction: 230°SW
Pressure: 29.97"   Gusts: NA
Location:  28.39°N, 36.57°E
Report Text: OETB 231400Z 23011KT CAVOK 31/04 Q1015 NOSIG
Loading
Personal Weather Stations






























Interactive Weather Map
Tropical Storm Tracking
New forecast layout! Learn more

10-Day Weather Forecast

Advertisements
Track Severe Weather on mobile